Time;durP1;ratioP1;P1;durP2;ratioP2;P2;SDS_P1;SDS_P2;PMS_P1;PMS_P2;Temp;Humidity;BMP_temperature;BMP_pressure;BME280_temperature;BME280_humidity;BME280_pressure;Samples;Min_cycle;Max_cycle;Signal;HPM_P1;HPM_P2
2021/12/29 00:00:33;;;;;;;;;;;9.10;99.90;;;7.59;100.00;99587.88;2569893;30;137526;-40
2021/12/29 00:03:02;;;;;;;5.20;2.78;;;9.10;99.90;;;7.60;100.00;99593.06;2570576;30;138158;-40
2021/12/29 00:05:30;;;;;;;6.88;3.58;;;9.20;99.90;;;7.59;100.00;99606.88;2568841;30;138258;-40
2021/12/29 00:07:58;;;;;;;5.93;2.85;;;9.20;99.90;;;7.53;100.00;99602.31;2567973;30;138077;-39
2021/12/29 00:10:26;;;;;;;;;;;9.10;99.90;;;7.57;100.00;99612.53;2570385;30;136898;-43
2021/12/29 00:12:55;;;;;;;5.22;2.90;;;9.10;99.90;;;7.55;100.00;99606.50;2570011;30;138103;-40
2021/12/29 00:15:26;;;;;;;6.80;3.10;;;9.10;99.90;;;7.54;100.00;99610.25;2568044;30;138152;-40
2021/12/29 00:17:56;;;;;;;6.93;3.25;;;9.10;99.90;;;7.55;100.00;99608.34;2569726;30;137319;-40
2021/12/29 00:20:30;;;;;;;5.60;3.03;;;9.10;99.90;;;7.49;100.00;99620.97;2566689;30;137146;-39
2021/12/29 00:23:04;;;;;;;8.23;3.80;;;9.10;99.90;;;7.52;100.00;99634.06;2569411;30;138229;-39
2021/12/29 00:25:33;;;;;;;7.15;3.55;;;9.10;99.90;;;7.52;100.00;99635.94;2568980;30;138566;-40
2021/12/29 00:28:01;;;;;;;6.78;4.22;;;9.10;99.90;;;7.58;100.00;99638.63;2570210;30;137126;-40
2021/12/29 00:30:31;;;;;;;5.75;3.85;;;9.10;99.90;;;7.54;100.00;99641.97;2568897;30;137374;-40
2021/12/29 00:32:59;;;;;;;;;;;9.10;99.90;;;7.51;100.00;99643.28;2569802;30;136895;-39
2021/12/29 00:35:47;;;;;;;6.65;3.83;;;9.10;99.90;;;7.54;100.00;99648.25;2570729;30;136767;-40
2021/12/29 00:38:33;;;;;;;7.60;4.40;;;9.10;99.90;;;7.55;100.00;99657.22;2572015;30;136907;-40
2021/12/29 00:41:20;;;;;;;8.68;3.60;;;9.10;99.90;;;7.55;100.00;99665.34;2569428;30;136737;-40
2021/12/29 00:44:08;;;;;;;9.73;4.53;;;9.10;99.90;;;7.55;100.00;99682.50;2571877;30;136874;-40
2021/12/29 00:46:54;;;;;;;8.13;4.60;;;9.20;99.90;;;7.58;100.00;99701.03;2567175;30;137146;-40
2021/12/29 00:49:30;;;;;;;;;;;9.10;99.90;;;7.58;100.00;99703.75;2567088;30;138496;-40
2021/12/29 00:51:59;;;;;;;7.68;4.07;;;9.10;99.90;;;7.59;100.00;99715.47;2572415;30;137621;-40
2021/12/29 00:54:27;;;;;;;9.32;4.93;;;9.10;99.90;;;7.59;100.00;99720.91;2571573;30;138393;-40
2021/12/29 00:56:55;;;;;;;8.95;4.30;;;9.20;99.90;;;7.57;100.00;99736.56;2570525;30;137330;-39
2021/12/29 00:59:23;;;;;;;7.50;4.00;;;9.10;99.90;;;7.57;100.00;99731.16;2568545;30;138243;-40
2021/12/29 01:01:53;;;;;;;7.20;4.10;;;9.10;99.90;;;7.56;100.00;99737.59;2572178;30;137501;-40
2021/12/29 01:04:20;;;;;;;7.57;4.25;;;9.10;99.90;;;7.55;100.00;99742.22;2569407;30;137413;-39
2021/12/29 01:06:52;;;;;;;8.25;4.20;;;9.10;99.90;;;7.51;100.00;99745.56;2568517;30;137683;-40
2021/12/29 01:09:20;;;;;;;7.32;4.00;;;9.10;99.90;;;7.56;100.00;99752.00;2569793;30;137388;-40
2021/12/29 01:11:48;;;;;;;;;;;9.10;99.90;;;7.57;100.00;99756.38;2569046;30;136714;-40
2021/12/29 01:14:21;;;;;;;6.47;3.78;;;9.10;99.90;;;7.58;100.00;99760.75;2567901;30;140393;-39
2021/12/29 01:16:50;;;;;;;8.43;4.38;;;9.10;99.90;;;7.55;100.00;99757.66;2566593;30;137128;-40
2021/12/29 01:19:29;;;;;;;8.65;4.85;;;9.10;99.90;;;7.55;100.00;99774.78;2571155;30;138357;-40
2021/12/29 01:22:01;;;;;;;9.55;5.03;;;9.10;99.90;;;7.56;100.00;99773.72;2570031;30;137008;-40
2021/12/29 01:24:30;;;;;;;10.25;5.47;;;9.10;99.90;;;7.56;100.00;99786.44;2569807;30;138251;-40
2021/12/29 01:26:59;;;;;;;9.80;5.70;;;9.10;99.90;;;7.56;100.00;99787.28;2570405;30;137428;-40
2021/12/29 01:29:29;;;;;;;10.70;5.85;;;9.10;99.90;;;7.61;100.00;99787.47;2571251;30;137309;-40
2021/12/29 01:31:59;;;;;;;11.32;6.68;;;9.10;99.90;;;7.57;100.00;99799.00;2569585;30;136727;-40
2021/12/29 01:34:27;;;;;;;9.43;5.53;;;9.10;99.90;;;7.59;100.00;99800.44;2570932;30;139315;-39
2021/12/29 01:36:57;;;;;;;10.52;6.10;;;9.10;99.90;;;7.56;100.00;99803.59;2570577;30;137073;-40
2021/12/29 01:39:29;;;;;;;10.88;6.82;;;9.10;99.90;;;7.58;100.00;99812.34;2568433;30;138870;-40
2021/12/29 01:41:59;;;;;;;10.57;6.18;;;9.10;99.90;;;7.57;100.00;99810.69;2567129;30;138317;-40
2021/12/29 01:44:28;;;;;;;13.32;6.70;;;9.10;99.90;;;7.59;100.00;99821.34;2569464;30;138160;-40
2021/12/29 01:46:58;;;;;;;9.88;5.72;;;9.10;99.90;;;7.57;100.00;99820.72;2569901;30;137603;-39
2021/12/29 01:49:26;;;;;;;12.07;6.75;;;9.10;99.90;;;7.59;100.00;99830.28;2569281;30;140859;-40
2021/12/29 01:52:09;;;;;;;11.05;6.07;;;9.10;99.90;;;7.58;100.00;99844.91;2569751;30;136803;-40
2021/12/29 01:54:38;;;;;;;12.05;6.05;;;9.10;99.90;;;7.59;100.00;99838.44;2568596;30;138511;-40
2021/12/29 01:57:10;;;;;;;9.82;6.22;;;9.20;99.90;;;7.56;100.00;99841.59;2565703;30;136758;-40
2021/12/29 01:59:38;;;;;;;10.55;5.40;;;9.10;99.90;;;7.59;100.00;99853.91;2570296;30;138837;-40
2021/12/29 02:02:14;;;;;;;7.38;4.82;;;9.10;99.90;;;7.59;100.00;99852.00;2569537;30;137838;-39
2021/12/29 02:04:45;;;;;;;8.23;4.05;;;9.10;99.90;;;7.59;100.00;99868.28;2570116;30;136695;-40
2021/12/29 02:07:13;;;;;;;6.82;3.58;;;9.20;99.90;;;7.58;100.00;99872.06;2567692;30;136916;-39
2021/12/29 02:09:41;;;;;;;6.18;2.95;;;9.20;99.90;;;7.61;100.00;99884.38;2569674;30;137728;-40
2021/12/29 02:12:09;;;;;;;5.22;2.45;;;9.20;99.90;;;7.59;100.00;99872.91;2569466;30;137386;-40
2021/12/29 02:14:37;;;;;;;7.10;3.08;;;9.20;99.90;;;7.50;100.00;99869.59;2567301;30;137675;-40
2021/12/29 02:17:05;;;;;;;5.88;2.40;;;9.10;99.90;;;7.57;100.00;99880.44;2569152;30;137645;-39
2021/12/29 02:19:32;;;;;;;4.50;2.53;;;9.10;99.90;;;7.54;100.00;99884.41;2570035;30;137314;-40
2021/12/29 02:22:13;;;;;;;5.47;2.28;;;9.10;99.90;;;7.56;100.00;99890.44;2568403;30;137579;-40
2021/12/29 02:24:43;;;;;;;5.60;2.22;;;9.10;99.90;;;7.54;100.00;99902.56;2566344;30;138244;-40
2021/12/29 02:27:12;;;;;;;4.50;2.30;;;9.10;99.90;;;7.53;100.00;99890.88;2571464;30;137214;-39
2021/12/29 02:29:42;;;;;;;4.55;2.22;;;9.10;99.90;;;7.53;100.00;99898.19;2570458;30;139031;-40
2021/12/29 02:32:09;;;;;;;4.38;2.50;;;9.10;99.90;;;7.56;100.00;99892.31;2568775;30;137457;-40
2021/12/29 02:34:37;;;;;;;4.88;2.80;;;9.10;99.90;;;7.51;100.00;99892.97;2568219;30;139148;-40
2021/12/29 02:37:05;;;;;;;6.47;3.47;;;9.10;99.90;;;7.50;100.00;99907.59;2570912;30;137014;-38
2021/12/29 02:39:36;;;;;;;6.75;4.30;;;9.00;99.90;;;7.53;100.00;99915.31;2568627;30;137852;-40
2021/12/29 02:42:07;;;;;;;7.65;4.75;;;9.10;99.90;;;7.54;100.00;99921.56;2568405;30;137417;-40
2021/12/29 02:44:40;;;;;;;7.93;4.70;;;9.10;99.90;;;7.49;100.00;99924.94;2567216;30;140717;-40
2021/12/29 02:47:10;;;;;;;8.40;5.53;;;9.00;99.90;;;7.57;100.00;99929.31;2568284;30;136711;-40
2021/12/29 02:49:38;;;;;;;8.80;4.95;;;9.10;99.90;;;7.56;100.00;99938.47;2568770;30;139045;-40
2021/12/29 02:52:08;;;;;;;8.90;5.40;;;9.10;99.90;;;7.59;100.00;99927.19;2571365;30;137323;-40
2021/12/29 02:54:36;;;;;;;9.23;5.47;;;9.10;99.90;;;7.56;100.00;99931.16;2571124;30;138432;-40
2021/12/29 02:57:04;;;;;;;10.32;5.85;;;9.10;99.90;;;7.53;100.00;99945.16;2570082;30;137332;-40
2021/12/29 02:59:31;;;;;;;9.98;6.05;;;9.10;99.90;;;7.53;100.00;99939.75;2570152;30;138099;-40
2021/12/29 03:01:59;;;;;;;11.70;6.13;;;9.10;99.90;;;7.51;100.00;99941.84;2570543;30;137400;-40
2021/12/29 03:04:27;;;;;;;11.68;6.57;;;9.10;99.90;;;7.52;100.00;99948.09;2568733;30;138088;-40
2021/12/29 03:06:54;;;;;;;11.27;6.18;;;9.10;99.90;;;7.47;100.00;99937.91;2568778;30;137508;-40
2021/12/29 03:09:21;;;;;;;10.02;5.88;;;9.10;99.90;;;7.48;100.00;99947.69;2571568;30;137282;-40
2021/12/29 03:11:49;;;;;;;12.00;6.10;;;9.10;99.90;;;7.43;100.00;99939.38;2568824;30;137486;-40
2021/12/29 03:14:18;;;;;;;11.18;6.78;;;9.00;99.90;;;7.46;100.00;99945.19;2569017;30;138167;-39
2021/12/29 03:16:45;;;;;;;10.27;6.63;;;9.00;99.90;;;7.46;100.00;99953.31;2570311;30;137051;-40
2021/12/29 03:19:14;;;;;;;11.82;7.10;;;9.00;99.90;;;7.45;100.00;99954.38;2569487;30;138441;-40
2021/12/29 03:21:42;;;;;;;9.93;5.95;;;9.00;99.90;;;7.45;100.00;99956.28;2568619;30;137504;-40
2021/12/29 03:24:09;;;;;;;9.77;5.82;;;9.00;99.90;;;7.43;100.00;99956.47;2568579;30;137410;-40
2021/12/29 03:26:37;;;;;;;10.45;6.40;;;9.00;99.90;;;7.44;100.00;99963.56;2566268;30;137850;-40
2021/12/29 03:29:06;;;;;;;9.85;6.10;;;9.00;99.90;;;7.42;100.00;99962.09;2568433;30;139184;-40
2021/12/29 03:31:37;;;;;;;9.55;5.75;;;9.00;99.90;;;7.38;100.00;99966.28;2567371;30;137483;-40
2021/12/29 03:34:06;;;;;;;10.23;6.07;;;9.00;99.90;;;7.38;100.00;99966.28;2567972;30;138394;-40
2021/12/29 03:36:33;;;;;;;9.25;6.07;;;8.90;99.90;;;7.37;100.00;99975.47;2566727;30;137341;-40
2021/12/29 03:39:03;;;;;;;9.88;6.00;;;8.90;99.90;;;7.34;100.00;99974.84;2568172;30;138238;-40
2021/12/29 03:41:30;;;;;;;9.55;6.13;;;8.90;99.90;;;7.33;100.00;99989.47;2568246;30;138297;-40
2021/12/29 03:43:58;;;;;;;10.02;6.43;;;8.90;99.90;;;7.40;100.00;99994.03;2566656;30;138133;-40
2021/12/29 03:46:29;;;;;;;10.68;6.95;;;8.90;99.90;;;7.41;100.00;100001.13;2567536;30;137359;-40
2021/12/29 03:48:56;;;;;;;11.15;6.15;;;9.00;99.90;;;7.41;100.00;99996.56;2567727;30;139218;-40
2021/12/29 03:51:24;;;;;;;10.13;6.60;;;9.00;99.90;;;7.43;100.00;100007.22;2567290;30;137741;-40
2021/12/29 03:53:51;;;;;;;;;;;9.00;99.90;;;7.43;100.00;100015.38;2568062;30;138969;-40
2021/12/29 03:56:19;;;;;;;12.05;6.32;;;9.00;99.90;;;7.39;100.00;100016.81;2568260;30;136957;-40
2021/12/29 03:58:46;;;;;;;10.55;6.88;;;8.90;99.90;;;7.41;100.00;100017.44;2565641;30;139091;-40
2021/12/29 04:01:15;;;;;;;11.00;6.75;;;9.00;99.90;;;7.37;100.00;100022.47;2567984;30;137501;-40
2021/12/29 04:03:45;;;;;;;11.45;6.28;;;8.90;99.90;;;7.37;100.00;100037.88;2567216;30;138196;-40
2021/12/29 04:06:18;;;;;;;11.45;6.57;;;9.00;99.90;;;7.34;100.00;100029.13;2566563;30;137595;-40
2021/12/29 04:08:48;;;;;;;10.40;6.50;;;8.90;99.90;;;7.35;100.00;100024.56;2568264;30;138283;-40
2021/12/29 04:11:18;;;;;;;10.32;5.70;;;8.90;99.90;;;7.36;100.00;100038.94;2567884;30;138093;-40
2021/12/29 04:13:47;;;;;;;9.88;6.57;;;8.90;99.90;;;7.37;100.00;100046.03;2569340;30;138297;-40
2021/12/29 04:16:17;;;;;;;9.95;5.97;;;8.90;99.90;;;7.33;100.00;100053.78;2565537;30;137627;-40
2021/12/29 04:19:06;;;;;;;10.68;6.55;;;8.90;99.90;;;7.37;100.00;100057.75;2567654;30;136810;-40
2021/12/29 04:21:38;;;;;;;9.25;6.38;;;8.90;99.90;;;7.36;100.00;100052.50;2567985;30;137548;-40
2021/12/29 04:24:06;;;;;;;11.02;6.63;;;8.90;99.90;;;7.35;100.00;100054.41;2567761;30;137775;-40
2021/12/29 04:26:37;;;;;;;9.90;6.82;;;8.90;99.90;;;7.35;100.00;100054.41;2565635;30;137399;-40
2021/12/29 04:29:08;;;;;;;13.05;8.10;;;8.90;99.90;;;7.32;100.00;100065.69;2568473;30;138248;-40
2021/12/29 04:31:36;;;;;;;13.77;8.15;;;8.90;99.90;;;7.30;100.00;100068.59;2567494;30;136966;-40
2021/12/29 04:34:04;;;;;;;11.43;7.68;;;8.90;99.90;;;7.30;100.00;100067.78;2567718;30;138359;-40
2021/12/29 04:36:32;;;;;;;14.93;8.80;;;8.90;99.90;;;7.30;100.00;100076.72;2567613;30;137397;-40
2021/12/29 04:39:03;;;;;;;12.95;8.55;;;8.90;99.90;;;7.27;100.00;100077.16;2565267;30;138435;-40
2021/12/29 04:41:30;;;;;;;17.40;10.20;;;8.80;99.90;;;7.30;100.00;100090.28;2565573;30;137414;-40
2021/12/29 04:43:58;;;;;;;16.98;10.13;;;8.90;99.90;;;7.27;100.00;100090.72;2568513;30;139237;-40
2021/12/29 04:46:36;;;;;;;16.90;10.38;;;8.90;99.90;;;7.26;100.00;100091.75;2567848;30;137010;-40
2021/12/29 04:49:09;;;;;;;17.00;10.75;;;8.80;99.90;;;7.29;100.00;100088.63;2565257;30;138046;-40
2021/12/29 04:51:43;;;;;;;15.98;10.82;;;8.80;99.90;;;7.31;100.00;100088.44;2568687;30;137012;-40
2021/12/29 04:54:11;;;;;;;19.23;11.52;;;8.80;99.90;;;7.29;100.00;100099.47;2567003;30;138396;-40
2021/12/29 04:56:39;;;;;;;17.02;11.15;;;8.90;99.90;;;7.29;100.00;100107.63;2567542;30;136712;-40
2021/12/29 04:59:06;;;;;;;;;;;8.90;99.90;;;7.30;100.00;100093.00;2568005;30;138219;-40
2021/12/29 05:01:34;;;;;;;17.48;10.52;;;8.90;99.90;;;7.32;100.00;100104.50;2568093;30;137174;-40
2021/12/29 05:04:02;;;;;;;15.98;10.15;;;8.90;99.90;;;7.31;100.00;100097.41;2565730;30;138179;-40
2021/12/29 05:09:15;;;;;;;15.85;10.20;;;8.90;99.90;;;7.29;100.00;100113.06;2567927;30;137112;-40
2021/12/29 05:11:43;;;;;;;;;;;8.90;99.90;;;7.30;100.00;100114.72;2567601;30;138247;-40
2021/12/29 05:14:12;;;;;;;16.65;9.63;;;8.90;99.90;;;7.29;100.00;100123.06;2568220;30;138447;-41
2021/12/29 05:16:40;;;;;;;18.20;9.90;;;8.90;99.90;;;7.28;100.00;100129.53;2568195;30;136776;-40
2021/12/29 05:19:07;;;;;;;17.85;10.50;;;8.80;99.90;;;7.26;100.00;100129.75;2568503;30;139097;-40
2021/12/29 05:21:35;;;;;;;15.73;10.05;;;8.80;99.90;;;7.25;100.00;100125.38;2568306;30;137015;-40
2021/12/29 05:24:02;;;;;;;17.65;10.30;;;8.80;99.90;;;7.26;100.00;100134.31;2567833;30;138242;-40
2021/12/29 05:26:30;;;;;;;16.48;10.20;;;8.80;99.90;;;7.28;100.00;100127.66;2568244;30;136745;-40
2021/12/29 05:28:58;;;;;;;17.63;10.85;;;8.80;99.90;;;7.29;100.00;100140.19;2567386;30;138213;-40
2021/12/29 05:31:26;;;;;;;18.33;11.35;;;8.80;99.90;;;7.23;100.00;100141.03;2568160;30;138312;-40
2021/12/29 05:33:55;;;;;;;19.35;11.82;;;8.80;99.90;;;7.28;100.00;100154.81;2568245;30;137890;-40
2021/12/29 05:36:23;;;;;;;22.27;11.57;;;8.90;99.90;;;7.30;100.00;100160.03;2567595;30;137457;-40
2021/12/29 05:38:53;;;;;;;16.33;10.45;;;8.90;99.90;;;7.30;100.00;100152.72;2568060;30;138308;-40
2021/12/29 05:41:21;;;;;;;17.80;11.05;;;8.90;99.90;;;7.29;100.00;100161.91;2567184;30;138570;-40
2021/12/29 05:43:49;;;;;;;17.15;11.63;;;8.80;99.90;;;7.30;100.00;100158.13;2566287;30;138356;-40
2021/12/29 05:46:17;;;;;;;18.30;10.60;;;8.90;99.90;;;7.26;100.00;100156.03;2566884;30;137630;-40
2021/12/29 05:48:45;;;;;;;21.75;11.77;;;8.80;99.90;;;7.26;100.00;100156.03;2568563;30;138247;-40
2021/12/29 05:51:13;;;;;;;21.27;11.48;;;8.80;99.90;;;7.25;100.00;100159.78;2567693;30;137710;-40
2021/12/29 05:53:42;;;;;;;;;;;8.80;99.90;;;7.24;100.00;100153.53;2567122;30;138674;-40
2021/12/29 05:56:10;;;;;;;20.40;11.07;;;8.80;99.90;;;7.24;100.00;100158.97;2567819;30;137956;-40
2021/12/29 05:58:39;;;;;;;16.10;10.98;;;8.80;99.90;;;7.22;100.00;100155.63;2569589;30;138397;-40
2021/12/29 06:01:09;;;;;;;18.95;11.02;;;8.80;99.90;;;7.21;100.00;100164.81;2568376;30;137422;-40
2021/12/29 06:03:40;;;;;;;19.48;11.25;;;8.80;99.90;;;7.19;100.00;100166.91;2568927;30;136927;-40
2021/12/29 06:06:07;;;;;;;18.08;11.13;;;8.80;99.90;;;7.18;100.00;100171.47;2566527;30;136637;-40
2021/12/29 06:08:35;;;;;;;19.02;11.45;;;8.70;99.90;;;7.15;100.00;100171.91;2568129;30;138292;-40
2021/12/29 06:11:03;;;;;;;19.08;10.55;;;8.70;99.90;;;7.13;100.00;100179.41;2568862;30;137490;-40
2021/12/29 06:13:30;;;;;;;17.33;10.18;;;8.70;99.90;;;7.18;100.00;100170.66;2568870;30;136718;-40
2021/12/29 06:15:58;;;;;;;20.10;11.32;;;8.70;99.90;;;7.19;100.00;100180.47;2566848;30;138378;-40
2021/12/29 06:18:26;;;;;;;21.25;11.23;;;8.70;99.90;;;7.18;100.00;100176.09;2568767;30;137479;-40
2021/12/29 06:20:54;;;;;;;18.02;10.90;;;8.80;99.90;;;7.20;100.00;100182.97;2567159;30;137404;-40
2021/12/29 06:23:22;;;;;;;18.52;11.38;;;8.80;99.90;;;7.18;100.00;100181.50;2568809;30;139060;-40
2021/12/29 06:25:49;;;;;;;20.42;10.77;;;8.80;99.90;;;7.20;100.00;100195.69;2569018;30;136988;-40
2021/12/29 06:28:17;;;;;;;18.80;11.05;;;8.80;99.90;;;7.16;100.00;100195.28;2568915;30;137462;-40
2021/12/29 06:30:45;;;;;;;21.23;10.70;;;8.70;99.90;;;7.14;100.00;100197.34;2567189;30;137212;-40
2021/12/29 06:33:13;;;;;;;16.15;10.10;;;8.70;99.90;;;7.13;100.00;100189.41;2566570;30;138904;-40
2021/12/29 06:35:40;;;;;;;20.30;11.80;;;8.70;99.90;;;7.15;100.00;100211.75;2566807;30;137414;-40
2021/12/29 06:38:08;;;;;;;19.05;10.80;;;8.70;99.90;;;7.15;100.00;100209.88;2567445;30;138619;-40
2021/12/29 06:40:35;;;;;;;19.25;10.00;;;8.70;99.90;;;7.18;100.00;100216.78;2567501;30;138732;-40
2021/12/29 06:43:03;;;;;;;16.92;10.88;;;8.70;99.90;;;7.16;100.00;100213.41;2567837;30;137601;-40
2021/12/29 06:45:31;;;;;;;17.70;10.60;;;8.70;99.90;;;7.12;100.00;100220.28;2569239;30;137509;-40
2021/12/29 06:47:58;;;;;;;;;;;8.70;99.90;;;7.15;100.00;100211.75;2565811;30;136841;-40
2021/12/29 06:50:26;;;;;;;17.00;10.63;;;8.70;99.90;;;7.14;100.00;100215.50;2568303;30;136920;-40
2021/12/29 06:52:54;;;;;;;16.80;10.50;;;8.70;99.90;;;7.09;100.00;100220.69;2568657;30;138245;-40
2021/12/29 06:55:22;;;;;;;18.23;10.65;;;8.70;99.90;;;7.10;100.00;100227.78;2567482;30;137699;-40
2021/12/29 06:57:51;;;;;;;17.05;10.88;;;8.70;99.90;;;7.09;100.00;100232.41;2568676;30;137873;-40
2021/12/29 07:00:19;;;;;;;18.42;11.43;;;8.70;99.90;;;7.10;100.00;100239.50;2568260;30;137452;-40
2021/12/29 07:02:47;;;;;;;19.67;11.15;;;8.70;99.90;;;7.14;100.00;100245.34;2567666;30;137371;-40
2021/12/29 07:05:15;;;;;;;;;;;8.70;99.90;;;7.18;100.00;100252.06;2568844;30;137238;-40
2021/12/29 07:07:43;;;;;;;19.15;10.13;;;8.70;99.90;;;7.13;100.00;100251.81;2566381;30;138166;-40
2021/12/29 07:10:10;;;;;;;15.75;10.43;;;8.70;99.90;;;7.13;100.00;100254.50;2567578;30;137622;-40
2021/12/29 07:12:38;;;;;;;15.25;10.15;;;8.70;99.90;;;7.16;100.00;100254.09;2567717;30;137920;-40
2021/12/29 07:15:06;;;;;;;20.40;10.98;;;8.70;99.90;;;7.14;100.00;100257.03;2567373;30;137157;-40
2021/12/29 07:17:34;;;;;;;17.80;10.32;;;8.70;99.90;;;7.15;100.00;100263.28;2568124;30;137973;-40
2021/12/29 07:20:02;;;;;;;18.30;10.93;;;8.70;99.90;;;7.11;100.00;100264.72;2567570;30;137454;-40
2021/12/29 07:22:30;;;;;;;19.50;10.55;;;8.70;99.90;;;7.14;100.00;100261.59;2568076;30;138830;-40
2021/12/29 07:24:57;;;;;;;18.33;10.23;;;8.70;99.90;;;7.11;100.00;100259.31;2566666;30;137875;-40
2021/12/29 07:27:25;;;;;;;19.95;10.07;;;8.70;99.90;;;7.13;100.00;100268.06;2566934;30;138442;-40
2021/12/29 07:29:53;;;;;;;18.67;10.85;;;8.70;99.90;;;7.08;100.00;100266.00;2567076;30;137640;-40
2021/12/29 07:32:20;;;;;;;17.42;9.68;;;8.70;99.90;;;7.12;100.00;100279.97;2567213;30;138332;-40
2021/12/29 07:34:48;;;;;;;18.17;10.38;;;8.70;99.90;;;7.09;100.00;100283.94;2564363;30;137067;-40
2021/12/29 07:37:15;;;;;;;18.25;10.48;;;8.70;99.90;;;7.05;100.00;100291.63;2567111;30;138189;-40
2021/12/29 07:39:43;;;;;;;19.50;11.00;;;8.60;99.90;;;7.09;100.00;100274.97;2567309;30;137419;-40
2021/12/29 07:42:10;;;;;;;17.77;10.07;;;8.60;99.90;;;7.06;100.00;100276.22;2567267;30;138987;-40
2021/12/29 07:44:45;;;;;;;17.17;10.13;;;8.60;99.90;;;7.05;100.00;100277.25;2565654;30;139481;-40
2021/12/29 07:47:14;;;;;;;15.40;9.60;;;8.60;99.90;;;7.05;100.00;100291.63;2568442;30;137533;-41
2021/12/29 07:49:41;;;;;;;14.93;9.18;;;8.70;99.90;;;7.05;100.00;100296.25;2566528;30;138395;-40
2021/12/29 07:52:09;;;;;;;17.02;9.48;;;8.60;99.90;;;7.03;100.00;100301.84;2568396;30;138329;-40
2021/12/29 07:54:37;;;;;;;14.10;9.23;;;8.60;99.90;;;7.10;100.00;100303.75;2564971;30;137802;-41
2021/12/29 07:57:04;;;;;;;17.58;9.30;;;8.60;99.90;;;7.05;100.00;100305.19;2567147;30;137507;-40
2021/12/29 07:59:32;;;;;;;18.13;9.82;;;8.60;99.90;;;7.05;100.00;100307.91;2567772;30;137411;-40
2021/12/29 08:01:59;;;;;;;14.23;9.05;;;8.60;99.90;;;7.07;100.00;100310.44;2568374;30;139053;-40
2021/12/29 08:04:27;;;;;;;14.88;8.60;;;8.60;99.90;;;7.10;100.00;100307.31;2566402;30;137783;-40
2021/12/29 08:06:55;;;;;;;17.92;8.45;;;8.60;99.90;;;7.08;100.00;100313.97;2568791;30;139362;-40
2021/12/29 08:09:22;;;;;;;14.52;8.45;;;8.60;99.90;;;7.11;100.00;100316.28;2568264;30;137640;-40
2021/12/29 08:11:50;;;;;;;15.77;8.63;;;8.60;99.90;;;7.12;100.00;100320.66;2567361;30;136691;-40
2021/12/29 08:14:18;;;;;;;;;;;8.70;99.90;;;7.15;100.00;100328.41;2567496;30;137528;-40
2021/12/29 08:16:46;;;;;;;13.70;7.47;;;8.70;99.90;;;7.14;100.00;100324.88;2567229;30;139197;-40
2021/12/29 08:19:16;;;;;;;14.77;8.00;;;8.70;99.90;;;7.13;100.00;100325.91;2565117;30;137014;-40
2021/12/29 08:21:44;;;;;;;15.00;8.55;;;8.70;99.90;;;7.14;100.00;100326.72;2567778;30;138892;-40
2021/12/29 08:24:11;;;;;;;18.08;8.48;;;8.70;99.90;;;7.18;100.00;100328.03;2567515;30;136609;-41
2021/12/29 08:26:40;;;;;;;12.13;7.72;;;8.70;99.90;;;7.17;100.00;100324.44;2565295;30;138436;-40
2021/12/29 08:29:07;;;;;;;14.75;8.52;;;8.70;99.90;;;7.15;100.00;100328.41;2566610;30;136672;-40
2021/12/29 08:31:35;;;;;;;15.20;8.70;;;8.70;99.90;;;7.17;100.00;100329.06;2568434;30;138304;-40
2021/12/29 08:34:03;;;;;;;13.27;7.97;;;8.70;99.90;;;7.19;100.00;100332.41;2566120;30;138348;-40
2021/12/29 08:36:30;;;;;;;15.52;7.90;;;8.70;99.90;;;7.21;100.00;100324.91;2568317;30;137710;-41
2021/12/29 08:38:58;;;;;;;15.75;7.88;;;8.70;99.90;;;7.19;100.00;100325.09;2565567;30;137347;-40
2021/12/29 08:41:25;;;;;;;12.70;7.72;;;8.80;99.90;;;7.18;100.00;100330.72;2568038;30;139031;-40
2021/12/29 08:43:53;;;;;;;15.38;7.72;;;8.70;99.90;;;7.22;100.00;100329.28;2566177;30;137737;-40
2021/12/29 08:46:22;;;;;;;14.88;8.10;;;8.70;99.90;;;7.24;100.00;100335.34;2567864;30;139080;-40
2021/12/29 08:48:50;;;;;;;15.27;8.02;;;8.80;99.90;;;7.24;100.00;100327.19;2567618;30;137528;-40
2021/12/29 08:51:19;;;;;;;12.50;7.28;;;8.80;99.90;;;7.28;100.00;100333.88;2568871;30;136898;-40
2021/12/29 08:53:48;;;;;;;13.40;7.55;;;8.80;99.90;;;7.32;100.00;100339.75;2567981;30;137619;-40
2021/12/29 08:56:16;;;;;;;14.23;8.02;;;8.80;99.90;;;7.31;100.00;100338.91;2568156;30;137507;-40
2021/12/29 08:58:46;;;;;;;13.82;7.60;;;8.80;99.90;;;7.33;100.00;100342.25;2567604;30;137161;-40
2021/12/29 09:01:13;;;;;;;13.63;7.40;;;8.90;99.90;;;7.33;100.00;100341.44;2568808;30;138125;-40
2021/12/29 09:03:42;;;;;;;14.15;6.88;;;8.90;99.90;;;7.36;100.00;100332.88;2568593;30;137640;-40
2021/12/29 09:06:11;;;;;;;13.82;6.57;;;8.90;99.90;;;7.38;100.00;100330.81;2568789;30;139080;-41
2021/12/29 09:08:38;;;;;;;10.77;6.18;;;8.90;99.90;;;7.39;100.00;100323.47;2569308;30;136813;-40
2021/12/29 09:11:07;;;;;;;12.43;6.60;;;8.90;99.90;;;7.46;100.00;100325.19;2568135;30;138592;-40
2021/12/29 09:13:36;;;;;;;13.23;6.50;;;9.00;99.90;;;7.57;100.00;100331.06;2569181;30;136786;-40
2021/12/29 09:16:06;;;;;;;13.88;6.30;;;9.00;99.90;;;7.59;100.00;100332.53;2568726;30;136842;-41
2021/12/29 09:18:36;;;;;;;10.68;5.80;;;9.10;99.90;;;7.65;100.00;100343.59;2568162;30;136961;-41
2021/12/29 09:21:11;;;;;;;14.05;6.60;;;9.10;99.90;;;7.67;100.00;100331.50;2567792;30;138172;-40
2021/12/29 09:23:40;;;;;;;12.02;6.07;;;9.20;99.90;;;7.76;100.00;100348.44;2568003;30;137498;-40
2021/12/29 09:26:13;;;;;;;11.35;6.05;;;9.20;99.90;;;7.82;100.00;100341.34;2564623;30;138462;-40
2021/12/29 09:28:44;;;;;;;9.82;6.18;;;9.30;99.90;;;7.86;100.00;100353.50;2567638;30;138255;-40
2021/12/29 09:31:14;;;;;;;10.52;6.13;;;9.30;99.90;;;7.89;100.00;100359.31;2568171;30;137487;-40
2021/12/29 09:33:43;;;;;;;8.85;5.53;;;9.30;99.90;;;7.90;100.00;100357.47;2566881;30;137315;-40
2021/12/29 09:36:10;;;;;;;8.13;5.38;;;9.40;99.90;;;7.93;100.00;100351.63;2566602;30;138140;-40
2021/12/29 09:38:40;;;;;;;9.77;6.07;;;9.40;99.90;;;7.99;100.00;100355.38;2569270;30;136921;-40
2021/12/29 09:41:15;;;;;;;11.50;5.47;;;9.40;99.90;;;8.05;100.00;100360.00;2569255;30;138278;-41
2021/12/29 09:43:45;;;;;;;8.73;5.45;;;9.50;99.90;;;8.07;100.00;100364.16;2566386;30;137449;-40
2021/12/29 09:46:15;;;;;;;9.50;5.35;;;9.50;99.90;;;8.10;100.00;100364.81;2567456;30;137260;-40
2021/12/29 09:48:42;;;;;;;9.75;5.05;;;9.60;99.90;;;8.17;100.00;100369.19;2568543;30;137473;-41
2021/12/29 09:51:13;;;;;;;9.88;5.10;;;9.60;99.90;;;8.20;100.00;100365.22;2567411;30;138326;-40
2021/12/29 09:53:41;;;;;;;8.68;4.70;;;9.70;99.90;;;8.20;100.00;100366.03;2568603;30;137532;-40
2021/12/29 09:56:10;;;;;;;9.70;5.18;;;9.70;99.90;;;8.23;100.00;100364.00;2567921;30;138441;-41
2021/12/29 09:58:39;;;;;;;8.65;4.80;;;9.70;99.90;;;8.24;100.00;100368.38;2566004;30;137310;-40
2021/12/29 10:01:10;;;;;;;8.43;4.70;;;9.70;99.90;;;8.32;100.00;100365.44;2566405;30;138484;-40
2021/12/29 10:03:38;;;;;;;8.63;5.30;;;9.70;99.90;;;8.32;100.00;100362.72;2565706;30;137481;-40
2021/12/29 10:06:09;;;;;;;8.13;4.80;;;9.80;99.90;;;8.33;100.00;100359.78;2568357;30;137058;-40
2021/12/29 10:08:41;;;;;;;8.68;4.85;;;9.80;99.90;;;8.38;100.00;100363.78;2569895;30;137029;-40
2021/12/29 10:11:36;;;;;;;7.88;5.05;;;9.80;99.90;;;8.43;100.00;100356.66;2568739;30;138126;-40
2021/12/29 10:14:13;;;;;;;7.72;4.78;;;9.90;99.90;;;8.46;100.00;100350.78;2567849;30;138255;-40
2021/12/29 10:16:45;;;;;;;9.00;5.25;;;9.90;99.90;;;8.45;100.00;100346.41;2565987;30;138245;-40
2021/12/29 10:19:15;;;;;;;10.10;6.43;;;9.90;99.90;;;8.44;100.00;100342.00;2568746;30;137591;-41
2021/12/29 10:21:47;;;;;;;7.82;5.10;;;9.90;99.90;;;8.46;100.00;100334.47;2567272;30;138362;-40
2021/12/29 10:24:19;;;;;;;7.90;5.45;;;9.90;99.90;;;8.43;100.00;100339.50;2567675;30;137082;-41